createdAt,value
2022-11-21T00:01:16.941Z,29.77
2022-11-21T00:03:44.537Z,28.75
2022-11-21T00:06:11.826Z,27.10
2022-11-21T00:08:39.317Z,29.60
2022-11-21T00:11:06.573Z,30.10
2022-11-21T00:13:34.448Z,28.42
2022-11-21T00:16:06.920Z,29.65
2022-11-21T00:18:35.785Z,30.38
2022-11-21T00:21:13.254Z,29.73
2022-11-21T00:23:41.277Z,29.50
2022-11-21T00:26:09.815Z,28.45
2022-11-21T00:28:37.939Z,28.35
2022-11-21T00:31:06.069Z,29.85
2022-11-21T00:33:36.937Z,30.17
2022-11-21T00:36:08.702Z,28.48
2022-11-21T00:38:36.825Z,30.60
2022-11-21T00:41:04.400Z,29.38
2022-11-21T00:43:32.195Z,29.40
2022-11-21T00:46:01.483Z,27.85
2022-11-21T00:48:30.053Z,28.35
2022-11-21T00:50:57.434Z,27.85
2022-11-21T00:53:24.848Z,28.27
2022-11-21T00:55:52.149Z,28.92
2022-11-21T00:58:19.606Z,26.20
2022-11-21T01:00:46.932Z,30.17
2022-11-21T01:03:14.534Z,29.92
2022-11-21T01:05:42.176Z,30.65
2022-11-21T01:08:09.692Z,30.65
2022-11-21T01:10:36.861Z,28.83
2022-11-21T01:13:04.368Z,27.13
2022-11-21T01:15:31.614Z,31.27
2022-11-21T01:17:59.091Z,30.98
2022-11-21T01:20:26.378Z,28.17
2022-11-21T01:22:53.797Z,30.50
2022-11-21T01:25:21.170Z,29.33
2022-11-21T01:27:48.642Z,30.00
2022-11-21T01:30:15.949Z,30.75
2022-11-21T01:32:43.539Z,31.92
2022-11-21T01:35:10.679Z,29.42
2022-11-21T01:37:38.211Z,31.10
2022-11-21T01:40:06.147Z,30.55
2022-11-21T01:43:01.583Z,29.52
2022-11-21T01:45:47.678Z,28.83
2022-11-21T01:48:15.565Z,28.58
2022-11-21T01:50:43.035Z,30.25
2022-11-21T01:53:10.906Z,28.17
2022-11-21T01:55:38.090Z,31.15
2022-11-21T01:58:06.134Z,28.92
2022-11-21T02:00:38.906Z,27.25
2022-11-21T02:03:12.155Z,26.83
2022-11-21T02:05:40.780Z,27.48
2022-11-21T02:08:14.639Z,27.40
2022-11-21T02:10:58.733Z,30.20
2022-11-21T02:13:26.523Z,28.52
2022-11-21T02:15:54.329Z,29.45
2022-11-21T02:18:21.801Z,30.17
2022-11-21T02:20:54.493Z,28.98
2022-11-21T02:23:41.683Z,27.23
2022-11-21T02:26:09.260Z,21.33
2022-11-21T02:28:36.915Z,28.27
2022-11-21T02:31:04.158Z,28.63
2022-11-21T02:33:31.824Z,30.60
2022-11-21T02:36:00.741Z,27.73
2022-11-21T02:38:34.073Z,29.00
2022-11-21T02:41:12.299Z,31.67
2022-11-21T02:43:51.438Z,30.25
2022-11-21T02:46:18.685Z,32.03
2022-11-21T02:48:46.928Z,32.95
2022-11-21T02:51:14.153Z,33.45
2022-11-21T02:53:41.566Z,36.20
2022-11-21T02:56:08.815Z,37.17
2022-11-21T02:58:36.560Z,33.70
2022-11-21T03:01:03.830Z,37.25
2022-11-21T03:03:31.339Z,35.38
2022-11-21T03:05:58.600Z,37.72
2022-11-21T03:08:26.135Z,34.08
2022-11-21T03:10:53.570Z,36.80
2022-11-21T03:13:21.029Z,38.22
2022-11-21T03:15:48.210Z,37.03
2022-11-21T03:18:15.689Z,38.08
2022-11-21T03:20:42.858Z,37.88
2022-11-21T03:23:10.318Z,37.15
2022-11-21T03:25:37.526Z,35.63
2022-11-21T03:28:04.978Z,38.20
2022-11-21T03:30:32.824Z,37.75
2022-11-21T03:33:00.332Z,39.13
2022-11-21T03:35:27.722Z,35.17
2022-11-21T03:37:55.221Z,35.05
2022-11-21T03:40:22.355Z,39.55
2022-11-21T03:42:49.844Z,38.97
2022-11-21T03:45:17.009Z,39.75
2022-11-21T03:47:44.545Z,39.53
2022-11-21T03:50:15.077Z,39.30
2022-11-21T03:52:42.723Z,36.50
2022-11-21T03:55:10.009Z,37.58
2022-11-21T03:57:37.451Z,38.22
2022-11-21T04:00:04.924Z,42.83
2022-11-21T04:02:32.627Z,41.15
2022-11-21T04:04:59.837Z,41.90
2022-11-21T04:07:27.498Z,40.28
2022-11-21T04:09:54.672Z,37.50
2022-11-21T04:12:22.061Z,39.88
2022-11-21T04:14:49.204Z,42.63
2022-11-21T04:17:16.702Z,40.03
2022-11-21T04:19:43.855Z,40.92
2022-11-21T04:22:11.310Z,40.70
2022-11-21T04:24:38.488Z,38.30
2022-11-21T04:27:05.959Z,39.92
2022-11-21T04:29:33.216Z,41.05
2022-11-21T04:32:00.858Z,40.75
2022-11-21T04:34:28.828Z,40.28
2022-11-21T04:36:56.818Z,40.70
2022-11-21T04:39:23.998Z,39.78
2022-11-21T04:41:51.387Z,38.58
2022-11-21T04:44:18.617Z,42.22
2022-11-21T04:46:46.045Z,41.42
2022-11-21T04:49:13.246Z,41.95
2022-11-21T04:51:40.789Z,42.72
2022-11-21T04:54:07.938Z,43.00
2022-11-21T04:56:36.613Z,40.38
2022-11-21T04:59:04.382Z,44.80
2022-11-21T05:01:32.051Z,43.53
2022-11-21T05:03:59.363Z,41.08
2022-11-21T05:06:26.779Z,43.35
2022-11-21T05:08:54.323Z,42.05
2022-11-21T05:11:40.967Z,42.38
2022-11-21T05:14:08.175Z,41.00
2022-11-21T05:16:36.003Z,41.92
2022-11-21T05:19:03.254Z,39.22
2022-11-21T05:21:30.722Z,36.67
2022-11-21T05:23:57.963Z,38.67
2022-11-21T05:26:25.403Z,39.30
2022-11-21T05:28:52.612Z,40.75
2022-11-21T05:31:20.092Z,39.65
2022-11-21T05:33:47.324Z,42.40
2022-11-21T05:36:14.844Z,41.20
2022-11-21T05:38:42.141Z,40.30
2022-11-21T05:41:09.573Z,38.47
2022-11-21T05:43:46.013Z,41.92
2022-11-21T05:46:20.630Z,41.38
2022-11-21T05:48:49.490Z,42.13
2022-11-21T05:51:20.294Z,41.92
2022-11-21T05:53:52.081Z,41.88
2022-11-21T05:56:21.074Z,41.88
2022-11-21T05:58:51.328Z,42.85
2022-11-21T06:01:41.476Z,41.33
2022-11-21T06:04:09.587Z,44.92
2022-11-21T06:06:37.492Z,41.67
2022-11-21T06:09:05.247Z,42.65
2022-11-21T06:11:32.725Z,41.17
2022-11-21T06:13:59.968Z,45.33
2022-11-21T06:16:27.449Z,39.55
2022-11-21T06:18:58.310Z,40.00
2022-11-21T06:21:28.691Z,44.33
2022-11-21T06:23:57.601Z,44.55
2022-11-21T06:26:27.182Z,43.08
2022-11-21T06:28:54.889Z,45.85
2022-11-21T06:31:24.827Z,40.35
2022-11-21T06:33:57.484Z,42.83
2022-11-21T06:36:26.191Z,44.65
2022-11-21T06:38:54.648Z,44.42
2022-11-21T06:41:24.509Z,42.88
2022-11-21T06:43:52.344Z,43.72
2022-11-21T06:46:20.201Z,42.97
2022-11-21T06:48:47.453Z,40.20
2022-11-21T06:51:17.910Z,39.88
2022-11-21T06:53:46.003Z,42.35
2022-11-21T06:56:14.516Z,43.88
2022-11-21T06:58:41.741Z,41.67
2022-11-21T07:01:10.928Z,41.28
2022-11-21T07:03:38.229Z,41.03
2022-11-21T07:06:06.971Z,44.13
2022-11-21T07:08:36.109Z,45.22
2022-11-21T07:11:25.300Z,42.15
2022-11-21T07:13:53.242Z,39.88
2022-11-21T07:16:20.695Z,43.03
2022-11-21T07:18:47.984Z,43.80
2022-11-21T07:21:15.461Z,47.17
2022-11-21T07:23:42.734Z,43.25
2022-11-21T07:26:11.270Z,44.00
2022-11-21T07:28:38.690Z,42.03
2022-11-21T07:31:12.922Z,45.67
2022-11-21T07:33:43.242Z,43.22
2022-11-21T07:36:14.369Z,45.30
2022-11-21T07:38:42.205Z,44.92
2022-11-21T07:41:10.423Z,45.45
2022-11-21T07:43:37.751Z,43.35
2022-11-21T07:46:05.312Z,45.63
2022-11-21T07:48:32.623Z,46.95
2022-11-21T07:51:03.988Z,48.60
2022-11-21T07:53:31.206Z,45.35
2022-11-21T07:55:59.893Z,44.15
2022-11-21T07:58:27.215Z,46.13
2022-11-21T08:00:55.084Z,46.72
2022-11-21T08:03:23.065Z,46.67
2022-11-21T08:05:50.628Z,43.65
2022-11-21T08:08:17.829Z,43.95
2022-11-21T08:10:47.041Z,46.35
2022-11-21T08:13:14.574Z,44.45
2022-11-21T08:15:42.090Z,43.97
2022-11-21T08:18:14.401Z,44.88
2022-11-21T08:20:42.928Z,46.58
2022-11-21T08:23:10.947Z,45.88
2022-11-21T08:25:39.958Z,44.90
2022-11-21T08:28:08.801Z,44.92
2022-11-21T08:30:37.449Z,45.90
2022-11-21T08:33:04.898Z,45.08
2022-11-21T08:35:32.587Z,45.85
2022-11-21T08:38:00.878Z,43.17
2022-11-21T08:40:31.010Z,41.20
2022-11-21T08:43:03.686Z,46.10
2022-11-21T08:45:32.398Z,42.58
2022-11-21T08:48:01.818Z,41.58
2022-11-21T08:50:29.505Z,43.25
2022-11-21T08:53:01.809Z,45.78
2022-11-21T08:55:30.803Z,44.90
2022-11-21T08:57:58.475Z,44.00
2022-11-21T09:00:26.772Z,42.40
2022-11-21T09:02:56.490Z,42.83
2022-11-21T09:05:23.920Z,45.13
2022-11-21T09:07:58.444Z,44.58
2022-11-21T09:10:29.569Z,44.70
2022-11-21T09:13:00.191Z,42.85
2022-11-21T09:15:46.351Z,44.25
2022-11-21T09:18:13.659Z,44.05
2022-11-21T09:20:43.152Z,49.03
2022-11-21T09:23:15.371Z,43.22
2022-11-21T09:25:44.164Z,45.55
2022-11-21T09:28:13.095Z,44.38
2022-11-21T09:30:41.933Z,44.60
2022-11-21T09:33:12.774Z,44.72
2022-11-21T09:35:40.527Z,48.45
2022-11-21T09:38:07.716Z,46.53
2022-11-21T09:40:36.349Z,45.15
2022-11-21T09:43:25.659Z,44.55
2022-11-21T09:46:03.193Z,44.38
2022-11-21T09:48:35.345Z,45.90
2022-11-21T09:51:07.636Z,44.55
2022-11-21T09:53:49.538Z,45.00
2022-11-21T09:56:20.130Z,40.25
2022-11-21T09:59:21.776Z,43.42
2022-11-21T10:01:49.398Z,43.80
2022-11-21T10:04:25.369Z,43.25
2022-11-21T10:07:01.650Z,39.22
2022-11-21T10:09:33.224Z,40.25
2022-11-21T10:12:25.441Z,42.08
2022-11-21T10:15:22.452Z,41.63
2022-11-21T10:18:28.275Z,39.45
2022-11-21T10:21:32.557Z,41.85
2022-11-21T10:24:31.708Z,38.78
2022-11-21T10:27:24.625Z,38.42
2022-11-21T10:30:01.186Z,38.53
2022-11-21T10:32:42.579Z,34.15
2022-11-21T10:35:16.314Z,37.88
2022-11-21T10:38:00.685Z,40.30
2022-11-21T10:40:45.864Z,39.97
2022-11-21T10:43:43.077Z,39.47
2022-11-21T10:46:10.590Z,40.20
2022-11-21T10:48:38.378Z,39.30
2022-11-21T10:51:15.220Z,39.03
2022-11-21T10:54:07.298Z,37.33
2022-11-21T10:56:37.114Z,38.22
2022-11-21T10:59:19.171Z,40.75
2022-11-21T11:02:03.138Z,39.90
2022-11-21T11:04:44.096Z,41.80
2022-11-21T11:07:27.294Z,38.55
2022-11-21T11:10:16.437Z,38.25
2022-11-21T11:13:05.300Z,40.20
2022-11-21T11:16:24.533Z,38.47
2022-11-21T11:18:58.051Z,38.70
2022-11-21T11:21:39.540Z,40.72
2022-11-21T11:24:10.255Z,38.38
2022-11-21T11:26:49.709Z,39.53
2022-11-21T11:29:18.777Z,37.90
2022-11-21T11:32:17.842Z,38.90
2022-11-21T11:34:51.569Z,38.47
2022-11-21T11:37:43.952Z,37.80
2022-11-21T11:40:36.218Z,40.58
2022-11-21T11:43:47.127Z,39.88
2022-11-21T11:46:56.039Z,37.67
2022-11-21T11:49:23.683Z,35.13
2022-11-21T11:51:59.340Z,37.42
2022-11-21T11:54:48.554Z,39.53
2022-11-21T11:57:17.545Z,37.30
2022-11-21T11:59:50.213Z,36.83
2022-11-21T12:02:25.967Z,36.70
2022-11-21T12:05:04.896Z,35.55
2022-11-21T12:10:59.966Z,35.92
2022-11-21T12:13:30.185Z,35.90
2022-11-21T12:16:08.542Z,38.50
2022-11-21T12:19:02.574Z,37.13
2022-11-21T12:21:29.967Z,37.10
2022-11-21T12:23:58.964Z,37.67
2022-11-21T12:26:35.006Z,34.45
2022-11-21T12:29:24.436Z,35.40
2022-11-21T12:32:04.364Z,34.10
2022-11-21T12:34:37.483Z,35.30
2022-11-21T12:37:17.338Z,37.40
2022-11-21T12:40:09.520Z,35.33
2022-11-21T12:43:01.205Z,36.83
2022-11-21T12:45:33.039Z,34.75
2022-11-21T12:48:47.251Z,33.95
2022-11-21T12:51:42.096Z,31.17
2022-11-21T12:54:30.627Z,32.22
2022-11-21T12:57:03.113Z,33.67
2022-11-21T12:59:34.797Z,34.88
2022-11-21T13:02:22.225Z,35.00
2022-11-21T13:04:51.210Z,33.63
2022-11-21T13:07:20.517Z,32.67
2022-11-21T13:09:50.016Z,33.50
2022-11-21T13:12:47.796Z,31.90
2022-11-21T13:15:17.977Z,33.60
2022-11-21T13:17:50.558Z,33.08
2022-11-21T13:20:34.509Z,31.70
2022-11-21T13:23:11.407Z,34.88
2022-11-21T13:25:47.428Z,32.60
2022-11-21T13:28:18.626Z,31.33
2022-11-21T13:31:32.481Z,33.45
2022-11-21T13:34:02.026Z,31.40
2022-11-21T13:36:29.140Z,32.85
2022-11-21T13:39:00.121Z,31.48
2022-11-21T13:41:54.870Z,32.75
2022-11-21T13:44:32.084Z,33.53
2022-11-21T13:47:20.702Z,32.50
2022-11-21T13:49:57.558Z,32.15
2022-11-21T13:52:52.025Z,33.58
2022-11-21T13:55:25.315Z,31.38
2022-11-21T13:58:14.716Z,31.80
2022-11-21T14:00:59.735Z,32.58
2022-11-21T14:03:32.669Z,32.47
2022-11-21T14:06:07.401Z,33.17
2022-11-21T14:08:35.383Z,34.15
2022-11-21T14:11:21.262Z,32.58
2022-11-21T14:13:50.233Z,32.00
2022-11-21T14:16:44.439Z,34.80
2022-11-21T14:19:19.671Z,31.00
2022-11-21T14:21:49.199Z,32.38
2022-11-21T14:24:18.842Z,30.67
2022-11-21T14:26:49.568Z,31.67
2022-11-21T14:29:28.828Z,32.45
2022-11-21T14:31:56.640Z,31.65
2022-11-21T14:34:29.192Z,32.08
2022-11-21T14:37:00.595Z,31.08
2022-11-21T14:39:40.930Z,35.35
2022-11-21T14:42:16.698Z,32.92
2022-11-21T14:44:44.193Z,33.42
2022-11-21T14:47:24.728Z,33.72
2022-11-21T14:49:55.122Z,33.10
2022-11-21T14:52:34.045Z,35.50
2022-11-21T14:57:53.343Z,31.70
2022-11-21T15:00:58.046Z,33.58
2022-11-21T15:03:21.171Z,34.25
2022-11-21T15:06:07.381Z,34.47
2022-11-21T15:09:33.272Z,30.75
2022-11-21T15:12:00.344Z,34.08
2022-11-21T15:14:36.142Z,35.70
2022-11-21T15:17:08.379Z,36.47
2022-11-21T15:19:35.939Z,37.17
2022-11-21T15:22:04.660Z,34.78
2022-11-21T15:24:42.339Z,37.90
2022-11-21T15:27:27.518Z,34.70
2022-11-21T15:30:10.541Z,35.05
2022-11-21T15:33:16.034Z,34.42
2022-11-21T15:35:55.156Z,35.67
2022-11-21T15:38:25.878Z,36.92
2022-11-21T15:41:02.086Z,38.90
2022-11-21T15:43:42.431Z,41.53
2022-11-21T15:46:19.946Z,36.45
2022-11-21T15:48:52.981Z,35.58
2022-11-21T15:54:21.736Z,36.70
2022-11-21T15:56:49.414Z,39.03
2022-11-21T15:57:11.100Z,40.42
2022-11-21T15:59:17.473Z,38.28
2022-11-21T16:01:44.918Z,36.45
2022-11-21T16:04:12.861Z,37.25
2022-11-21T16:06:40.330Z,35.15
2022-11-21T16:09:07.610Z,33.83
2022-11-21T16:11:47.144Z,35.33
2022-11-21T16:14:16.533Z,36.90
2022-11-21T16:16:44.952Z,35.55
2022-11-21T16:19:12.879Z,37.30
2022-11-21T16:21:40.749Z,34.67
2022-11-21T16:24:08.357Z,34.50
2022-11-21T16:26:35.816Z,33.80
2022-11-21T16:29:06.460Z,35.70
2022-11-21T16:31:34.677Z,37.05
2022-11-21T16:34:02.629Z,36.97
2022-11-21T16:36:32.248Z,37.67
2022-11-21T16:39:07.745Z,34.20
2022-11-21T16:41:36.633Z,33.80
2022-11-21T16:44:03.925Z,35.35
2022-11-21T16:46:31.433Z,36.30
2022-11-21T16:49:00.634Z,38.08
2022-11-21T16:51:28.978Z,36.80
2022-11-21T16:53:57.281Z,35.72
2022-11-21T16:56:25.322Z,35.60
2022-11-21T16:58:52.877Z,35.67
2022-11-21T17:01:23.294Z,37.03
2022-11-21T17:03:51.347Z,39.67
2022-11-21T17:06:24.824Z,35.88
2022-11-21T17:08:51.949Z,38.70
2022-11-21T17:11:22.171Z,36.08
2022-11-21T17:13:50.930Z,34.55
2022-11-21T17:16:20.660Z,34.10
2022-11-21T17:18:48.385Z,36.28
2022-11-21T17:21:16.695Z,35.50
2022-11-21T17:23:45.414Z,35.08
2022-11-21T17:26:15.776Z,34.05
2022-11-21T17:28:45.819Z,36.90
2022-11-21T17:31:15.737Z,34.97
2022-11-21T17:33:43.589Z,33.22
2022-11-21T17:36:15.353Z,33.88
2022-11-21T17:38:43.928Z,38.33
2022-11-21T17:41:12.453Z,37.53
2022-11-21T17:43:40.248Z,34.08
2022-11-21T17:46:13.114Z,34.78
2022-11-21T17:48:41.138Z,35.65
2022-11-21T17:51:15.497Z,36.92
2022-11-21T17:53:44.531Z,35.33
2022-11-21T17:56:14.498Z,33.78
2022-11-21T17:58:42.041Z,34.75
2022-11-21T18:01:13.818Z,35.80
2022-11-21T18:03:41.253Z,32.92
2022-11-21T18:06:11.064Z,35.60
2022-11-21T18:08:40.889Z,35.15
2022-11-21T18:11:10.829Z,32.38
2022-11-21T18:13:38.935Z,34.72
2022-11-21T18:16:15.238Z,36.60
2022-11-21T18:18:42.731Z,35.08
2022-11-21T18:21:31.315Z,33.78
2022-11-21T18:24:00.743Z,33.10
2022-11-21T18:26:31.283Z,33.63
2022-11-21T18:29:28.527Z,32.78
2022-11-21T18:31:48.632Z,32.17
2022-11-21T18:34:16.082Z,32.92
2022-11-21T18:36:43.726Z,34.55
2022-11-21T18:39:15.214Z,31.73
2022-11-21T18:41:43.605Z,33.00
2022-11-21T18:44:12.652Z,34.03
2022-11-21T18:46:42.222Z,35.30
2022-11-21T18:49:09.767Z,33.40
2022-11-21T18:51:37.648Z,32.97
2022-11-21T18:54:08.325Z,37.75
2022-11-21T18:56:38.084Z,35.13
2022-11-21T18:59:06.688Z,32.00
2022-11-21T19:01:35.828Z,33.80
2022-11-21T19:04:03.718Z,35.05
2022-11-21T19:06:31.949Z,33.15
2022-11-21T19:08:59.492Z,34.10
2022-11-21T19:11:29.828Z,34.40
2022-11-21T19:13:59.367Z,34.80
2022-11-21T19:16:28.183Z,33.45
2022-11-21T19:19:26.518Z,32.45
2022-11-21T19:21:43.815Z,36.13
2022-11-21T19:24:15.516Z,31.15
2022-11-21T19:26:43.563Z,29.35
2022-11-21T19:29:11.090Z,32.22
2022-11-21T19:31:44.615Z,33.80
2022-11-21T19:34:16.421Z,30.05
2022-11-21T19:36:44.873Z,33.63
2022-11-21T19:39:12.433Z,32.00
2022-11-21T19:41:40.308Z,29.70
2022-11-21T19:44:07.972Z,29.95
2022-11-21T19:46:38.957Z,29.05
2022-11-21T19:49:07.332Z,29.45
2022-11-21T19:51:37.715Z,28.67
2022-11-21T19:54:09.900Z,29.70
2022-11-21T19:56:37.534Z,28.27
2022-11-21T19:59:05.042Z,29.92
2022-11-21T20:01:34.731Z,26.30
2022-11-21T20:04:04.237Z,29.90
2022-11-21T20:06:42.551Z,27.73
2022-11-21T20:09:12.932Z,29.35
2022-11-21T20:11:42.788Z,29.05
2022-11-21T20:14:15.091Z,26.60
2022-11-21T20:16:49.464Z,29.52
2022-11-21T20:19:40.488Z,27.98
2022-11-21T20:22:07.970Z,28.75
2022-11-21T20:24:41.186Z,28.70
2022-11-21T20:27:09.544Z,29.60
2022-11-21T20:29:37.776Z,29.08
2022-11-21T20:32:05.444Z,28.90
2022-11-21T20:34:34.861Z,27.45
2022-11-21T20:37:03.492Z,29.15
2022-11-21T20:39:32.354Z,30.25
2022-11-21T20:42:00.083Z,28.15
2022-11-21T20:45:36.043Z,27.90
2022-11-21T20:47:16.755Z,28.70
2022-11-21T20:49:44.071Z,28.25
2022-11-21T20:54:58.834Z,29.73
2022-11-21T20:57:27.582Z,29.90
2022-11-21T20:59:54.866Z,29.00
2022-11-21T21:02:22.428Z,28.77
2022-11-21T21:04:49.605Z,29.88
2022-11-21T21:07:17.150Z,28.83
2022-11-21T21:09:44.373Z,28.05
2022-11-21T21:12:11.835Z,30.88
2022-11-21T21:14:39.465Z,31.00
2022-11-21T21:17:06.976Z,31.15
2022-11-21T21:19:34.191Z,29.52
2022-11-21T21:22:01.780Z,31.30
2022-11-21T21:24:29.017Z,28.98
2022-11-21T21:26:56.474Z,28.63
2022-11-21T21:29:23.745Z,28.00
2022-11-21T21:31:52.549Z,29.35
2022-11-21T21:34:21.444Z,29.08
2022-11-21T21:36:49.858Z,30.33
2022-11-21T21:39:17.156Z,27.50
2022-11-21T21:41:46.676Z,27.23
2022-11-21T21:44:15.724Z,29.15
2022-11-21T21:46:43.815Z,28.75
2022-11-21T21:49:11.401Z,28.02
2022-11-21T21:51:40.121Z,29.45
2022-11-21T21:54:07.662Z,29.55
2022-11-21T21:56:35.448Z,28.60
2022-11-21T21:59:07.670Z,29.02
2022-11-21T22:01:35.349Z,28.55
2022-11-21T22:04:04.403Z,28.25
2022-11-21T22:06:35.980Z,29.52
2022-11-21T22:09:04.087Z,28.42
2022-11-21T22:11:35.444Z,30.58
2022-11-21T22:14:05.724Z,27.52
2022-11-21T22:16:33.897Z,26.83
2022-11-21T22:19:01.341Z,26.13
2022-11-21T22:21:34.347Z,28.75
2022-11-21T22:26:51.985Z,28.30
2022-11-21T22:29:19.220Z,25.90
2022-11-21T22:31:46.800Z,28.38
2022-11-21T22:34:14.429Z,29.48
2022-11-21T22:36:42.211Z,29.60
2022-11-21T22:39:09.464Z,26.27
2022-11-21T22:41:36.996Z,27.02
2022-11-21T22:44:04.534Z,29.77
2022-11-21T22:46:33.027Z,28.73
2022-11-21T22:49:00.255Z,27.27
2022-11-21T22:51:29.508Z,28.85
2022-11-21T22:53:57.642Z,27.70
2022-11-21T22:56:26.088Z,29.27
2022-11-21T22:58:53.985Z,28.13
2022-11-21T23:01:23.608Z,29.05
2022-11-21T23:03:51.384Z,28.00
2022-11-21T23:06:21.593Z,27.23
2022-11-21T23:08:49.567Z,30.42
2022-11-21T23:11:26.288Z,28.40
2022-11-21T23:13:54.862Z,27.85
2022-11-21T23:16:22.669Z,27.85
2022-11-21T23:18:53.041Z,29.88
2022-11-21T23:21:21.338Z,29.27
2022-11-21T23:23:48.732Z,28.65
2022-11-21T23:26:16.584Z,28.73
2022-11-21T23:28:43.787Z,26.00
2022-11-21T23:31:11.468Z,28.52
2022-11-21T23:33:38.812Z,26.10
2022-11-21T23:36:06.452Z,28.42
2022-11-21T23:38:33.706Z,27.45
2022-11-21T23:41:01.162Z,28.17
2022-11-21T23:43:28.405Z,28.20
2022-11-21T23:45:55.858Z,26.42
2022-11-21T23:48:24.292Z,25.58
2022-11-21T23:50:52.268Z,27.65
2022-11-21T23:53:20.236Z,26.42
2022-11-21T23:55:48.507Z,25.65
2022-11-21T23:58:16.379Z,27.15
